Time;durP1;ratioP1;P1;durP2;ratioP2;P2;SDS_P1;SDS_P2;PMS_P1;PMS_P2;Temp;Humidity;BMP_temperature;BMP_pressure;BME280_temperature;BME280_humidity;BME280_pressure;Samples;Min_cycle;Max_cycle;Signal;HPM_P1;HPM_P2
2023/01/15 00:01:27;;;;;;;0.43;0.23;;;9.20;99.90;;;;;;5129568;27;21243;-70
2023/01/15 00:03:57;;;;;;;0.57;0.30;;;9.20;99.90;;;;;;5128783;27;20621;-70
2023/01/15 00:06:25;;;;;;;2.63;0.60;;;9.30;99.90;;;;;;5129627;27;20651;-71
2023/01/15 00:08:53;;;;;;;0.30;0.20;;;9.30;99.90;;;;;;5128667;27;20666;-69
2023/01/15 00:11:20;;;;;;;0.30;0.27;;;9.30;99.90;;;;;;5129903;27;20761;-69
2023/01/15 00:13:47;;;;;;;0.47;0.47;;;9.30;99.90;;;;;;5129133;27;20611;-69
2023/01/15 00:16:16;;;;;;;0.40;0.30;;;9.30;99.90;;;;;;5129231;27;20654;-70
2023/01/15 00:18:44;;;;;;;0.30;0.20;;;9.30;99.90;;;;;;5128287;27;20630;-70
2023/01/15 00:21:12;;;;;;;1.53;1.47;;;9.40;99.90;;;;;;5129484;27;20650;-69
2023/01/15 00:29:12;;;;;;;1.43;1.33;;;9.40;99.90;;;;;;5111062;27;21415;-71
2023/01/15 00:31:39;;;;;;;0.40;0.20;;;9.40;99.90;;;;;;5129363;27;20651;-70
2023/01/15 00:34:06;;;;;;;0.40;0.33;;;9.50;99.90;;;;;;5128538;27;20662;-70
2023/01/15 00:36:36;;;;;;;0.30;0.20;;;9.50;99.90;;;;;;5126844;27;20638;-70
2023/01/15 00:39:03;;;;;;;0.90;0.40;;;9.50;99.90;;;;;;5107681;27;20643;-70
2023/01/15 00:41:30;;;;;;;0.70;0.30;;;9.50;99.90;;;;;;5114549;27;21235;-69
2023/01/15 00:43:57;;;;;;;0.30;0.20;;;9.50;99.90;;;;;;5113570;27;20630;-70
2023/01/15 00:46:24;;;;;;;0.40;0.30;;;9.40;99.90;;;;;;5108646;27;20658;-70
2023/01/15 00:48:51;;;;;;;0.40;0.30;;;9.40;99.90;;;;;;5108840;27;20651;-69
2023/01/15 00:51:17;;;;;;;0.30;0.20;;;9.50;99.90;;;;;;5109796;27;20653;-70
2023/01/15 00:53:46;;;;;;;0.30;0.20;;;9.50;99.90;;;;;;5108828;28;21179;-69
2023/01/15 00:56:12;;;;;;;0.67;0.40;;;9.40;99.90;;;;;;5108384;28;20651;-71
2023/01/15 00:58:39;;;;;;;0.30;0.20;;;9.40;99.90;;;;;;5107745;27;20624;-70
2023/01/15 01:01:06;;;;;;;1.80;0.50;;;9.50;99.90;;;;;;5109282;27;20770;-69
2023/01/15 01:03:33;;;;;;;0.30;0.20;;;9.50;99.90;;;;;;5124390;27;20997;-69
2023/01/15 01:06:01;;;;;;;0.70;0.30;;;9.50;99.90;;;;;;5128350;27;20677;-71
2023/01/15 01:08:28;;;;;;;0.30;0.20;;;9.50;99.90;;;;;;5114411;27;20691;-70
2023/01/15 01:11:04;;;;;;;0.40;0.30;;;9.60;99.90;;;;;;5107858;27;20655;-69
2023/01/15 01:13:31;;;;;;;0.30;0.20;;;9.50;99.90;;;;;;5120752;27;20622;-69
2023/01/15 01:15:58;;;;;;;0.30;0.20;;;9.50;99.90;;;;;;5127283;27;20647;-70
2023/01/15 01:18:24;;;;;;;0.30;0.30;;;9.50;99.90;;;;;;5126365;27;20626;-71
2023/01/15 01:20:52;;;;;;;0.30;0.20;;;9.50;99.90;;;;;;5108443;28;20659;-69
2023/01/15 01:23:19;;;;;;;0.30;0.20;;;9.40;99.90;;;;;;5107884;27;20628;-71
2023/01/15 01:25:46;;;;;;;0.40;0.30;;;9.50;99.90;;;;;;5107690;28;20642;-70
2023/01/15 01:28:14;;;;;;;0.30;0.20;;;9.50;99.90;;;;;;5122966;27;20621;-70
2023/01/15 01:30:41;;;;;;;0.30;0.20;;;9.50;99.90;;;;;;5127493;27;20660;-71
2023/01/15 01:33:08;;;;;;;0.50;0.40;;;9.60;99.90;;;;;;5117564;27;20633;-70
2023/01/15 01:35:35;;;;;;;0.30;0.20;;;9.30;99.90;;;;;;5127867;27;20662;-70
2023/01/15 01:38:02;;;;;;;0.30;0.20;;;9.50;99.90;;;;;;5123401;27;20637;-71
2023/01/15 01:40:29;;;;;;;0.30;0.30;;;9.50;99.90;;;;;;5108654;27;20656;-70
2023/01/15 01:42:56;;;;;;;0.40;0.30;;;9.60;99.90;;;;;;5116407;27;20623;-70
2023/01/15 01:45:26;;;;;;;0.37;0.30;;;9.70;99.90;;;;;;5118493;27;20746;-70
2023/01/15 01:47:56;;;;;;;0.30;0.30;;;9.60;99.90;;;;;;5109345;27;20718;-70
2023/01/15 01:50:23;;;;;;;0.30;0.20;;;9.70;99.90;;;;;;5117486;27;21253;-71
2023/01/15 01:52:55;;;;;;;0.50;0.20;;;9.70;99.90;;;;;;5112543;27;21165;-69
2023/01/15 01:55:24;;;;;;;0.30;0.20;;;9.70;99.90;;;;;;5107765;28;20624;-69
2023/01/15 01:57:54;;;;;;;0.40;0.30;;;9.70;99.90;;;;;;5120819;27;20625;-71
2023/01/15 02:00:24;;;;;;;0.30;0.20;;;9.60;99.90;;;;;;5126642;27;20627;-70
2023/01/15 02:02:52;;;;;;;0.50;0.47;;;9.60;99.90;;;;;;5118101;27;20623;-70
2023/01/15 02:05:27;;;;;;;0.37;0.23;;;9.80;99.90;;;;;;5106170;28;20949;-70
2023/01/15 02:07:54;;;;;;;0.30;0.20;;;9.70;99.90;;;;;;5117606;27;20995;-69
2023/01/15 02:10:21;;;;;;;0.30;0.20;;;9.70;99.90;;;;;;5126695;27;20667;-71
2023/01/15 02:12:54;;;;;;;0.37;0.37;;;9.70;99.90;;;;;;5115338;28;20626;-69
2023/01/15 02:15:31;;;;;;;0.40;0.37;;;9.60;99.90;;;;;;5127010;28;21267;-70
2023/01/15 02:18:05;;;;;;;0.30;0.20;;;9.60;99.90;;;;;;5127225;28;20628;-71
2023/01/15 02:20:40;;;;;;;0.30;0.17;;;9.70;99.90;;;;;;5127363;28;20711;-71
2023/01/15 02:23:38;;;;;;;0.40;0.20;;;9.70;99.90;;;;;;5125672;28;21237;-71
2023/01/15 02:26:52;;;;;;;0.30;0.20;;;9.80;99.90;;;;;;5110974;27;20702;-69
2023/01/15 02:29:29;;;;;;;0.30;0.30;;;9.60;99.90;;;;;;5074256;27;20674;-70
2023/01/15 02:31:57;;;;;;;0.40;0.20;;;;;;;;;;5130710;27;20638;-69
2023/01/15 02:34:29;;;;;;;0.40;0.20;;;9.70;99.90;;;;;;5113668;27;21583;-70
2023/01/15 02:37:02;;;;;;;0.30;0.20;;;9.60;99.90;;;;;;5130547;27;20651;-71
2023/01/15 02:39:32;;;;;;;0.30;0.20;;;9.70;99.90;;;;;;5129342;27;20625;-69
2023/01/15 02:42:04;;;;;;;0.30;0.20;;;9.70;99.90;;;;;;5130225;27;20662;-69
2023/01/15 02:44:36;;;;;;;0.40;0.30;;;9.70;99.90;;;;;;5113015;27;20711;-70
2023/01/15 02:47:05;;;;;;;1.30;0.60;;;9.70;99.90;;;;;;5130641;27;21214;-70
2023/01/15 02:49:33;;;;;;;0.30;0.20;;;9.70;99.90;;;;;;5130155;27;20655;-70
2023/01/15 02:52:05;;;;;;;0.50;0.37;;;9.70;99.90;;;;;;5131848;27;20647;-70
2023/01/15 02:54:39;;;;;;;0.30;0.20;;;9.80;99.90;;;;;;5131394;27;21195;-70
2023/01/15 02:57:08;;;;;;;0.40;0.40;;;9.80;99.90;;;;;;5130813;27;20722;-70
2023/01/15 02:59:41;;;;;;;0.30;0.20;;;9.80;99.90;;;;;;5130188;27;20626;-70
2023/01/15 03:02:13;;;;;;;0.40;0.20;;;9.80;99.90;;;;;;5131106;27;20677;-69
2023/01/15 03:04:43;;;;;;;0.30;0.20;;;9.80;99.90;;;;;;5131078;27;20618;-70
2023/01/15 03:07:16;;;;;;;0.30;0.20;;;9.80;99.90;;;;;;5131168;27;20639;-69
2023/01/15 03:09:44;;;;;;;0.30;0.20;;;9.80;99.90;;;;;;5129785;27;21097;-71
2023/01/15 03:12:16;;;;;;;0.30;0.20;;;9.80;99.90;;;;;;5131273;27;20988;-71
2023/01/15 03:14:52;;;;;;;0.30;0.20;;;9.80;99.90;;;;;;5130467;27;20619;-71
2023/01/15 03:17:23;;;;;;;0.50;0.40;;;9.90;99.90;;;;;;5130438;27;21556;-69
2023/01/15 03:19:58;;;;;;;0.30;0.20;;;9.90;99.90;;;;;;5129962;27;20614;-70
2023/01/15 03:22:29;;;;;;;0.30;0.20;;;9.90;99.90;;;;;;5130872;27;20723;-70
2023/01/15 03:25:02;;;;;;;0.30;0.20;;;9.90;99.90;;;;;;5131270;27;20633;-69
2023/01/15 03:27:30;;;;;;;0.40;0.20;;;9.90;99.90;;;;;;5130561;27;20722;-72
2023/01/15 03:30:04;;;;;;;0.30;0.20;;;10.00;99.90;;;;;;5129692;27;20661;-70
2023/01/15 03:32:31;;;;;;;0.30;0.20;;;9.90;99.90;;;;;;5129755;27;20614;-70
2023/01/15 03:34:59;;;;;;;0.60;0.30;;;9.90;99.90;;;;;;5130692;27;20661;-69
2023/01/15 03:37:28;;;;;;;0.30;0.20;;;10.10;99.90;;;;;;5123134;27;21243;-70
2023/01/15 03:39:57;;;;;;;0.30;0.20;;;10.20;99.90;;;;;;5122179;27;20623;-70
2023/01/15 03:42:35;;;;;;;0.30;0.23;;;10.20;99.90;;;;;;5130367;27;20693;-70
2023/01/15 03:45:10;;;;;;;0.30;0.20;;;10.30;99.90;;;;;;5130331;27;20613;-71
2023/01/15 03:47:49;;;;;;;0.30;0.20;;;10.30;99.90;;;;;;5129767;27;20762;-70
2023/01/15 03:50:22;;;;;;;0.30;0.20;;;10.30;99.90;;;;;;5129410;27;20670;-70
2023/01/15 03:52:58;;;;;;;0.30;0.20;;;10.40;99.90;;;;;;5130576;27;20717;-70
2023/01/15 03:55:31;;;;;;;0.30;0.20;;;10.50;99.90;;;;;;5129911;27;20642;-71
2023/01/15 03:58:02;;;;;;;0.53;0.20;;;10.60;99.90;;;;;;5129246;27;20626;-70
2023/01/15 04:00:35;;;;;;;0.30;0.10;;;10.50;99.90;;;;;;5130128;27;20653;-69
2023/01/15 04:03:06;;;;;;;0.50;0.20;;;10.60;99.90;;;;;;5129885;27;21202;-71
2023/01/15 04:05:35;;;;;;;0.50;0.30;;;10.60;99.90;;;;;;5129672;27;20653;-70
2023/01/15 04:08:03;;;;;;;0.30;0.20;;;10.60;99.90;;;;;;5129548;27;20993;-70
2023/01/15 04:10:30;;;;;;;0.30;0.20;;;10.90;99.90;;;;;;5129387;27;20750;-70
2023/01/15 04:12:57;;;;;;;0.30;0.20;;;10.60;99.90;;;;;;5129853;27;21038;-69
2023/01/15 04:15:24;;;;;;;0.30;0.20;;;10.70;99.90;;;;;;5129750;27;21010;-69
2023/01/15 04:17:52;;;;;;;0.30;0.20;;;10.70;99.90;;;;;;5129565;27;20952;-71
2023/01/15 04:20:19;;;;;;;0.30;0.20;;;10.70;99.90;;;;;;5128604;27;20707;-70
2023/01/15 04:22:46;;;;;;;1.23;0.57;;;10.60;99.90;;;;;;5129143;27;20777;-69
2023/01/15 04:25:12;;;;;;;0.30;0.20;;;10.50;99.90;;;;;;5129282;27;20665;-70
2023/01/15 04:27:39;;;;;;;0.30;0.30;;;10.80;99.90;;;;;;5129755;27;20699;-70
2023/01/15 04:30:07;;;;;;;0.40;0.30;;;10.50;99.90;;;;;;5128801;27;20651;-70
2023/01/15 04:32:34;;;;;;;0.30;0.20;;;10.50;99.90;;;;;;5129008;27;20619;-70
2023/01/15 04:35:02;;;;;;;0.30;0.20;;;10.50;99.90;;;;;;5129011;27;20629;-70
2023/01/15 04:37:29;;;;;;;0.30;0.30;;;10.50;99.90;;;;;;5125812;27;20629;-69
2023/01/15 04:39:56;;;;;;;0.30;0.20;;;10.50;99.90;;;;;;5118970;27;20668;-70
2023/01/15 04:45:08;;;;;;;0.30;0.20;;;10.50;99.90;;;;;;5128990;27;20752;-69
2023/01/15 04:47:35;;;;;;;0.30;0.20;;;10.50;99.90;;;;;;5128150;27;20611;-71
2023/01/15 04:50:03;;;;;;;0.30;0.20;;;10.50;99.90;;;;;;5127409;27;20666;-70
2023/01/15 04:52:30;;;;;;;0.87;0.37;;;10.50;99.90;;;;;;5129279;27;21094;-70
2023/01/15 04:54:57;;;;;;;0.40;0.30;;;10.50;99.90;;;;;;5129429;27;20620;-70
2023/01/15 04:57:24;;;;;;;0.30;0.20;;;10.50;99.90;;;;;;5128809;27;20653;-71
2023/01/15 04:59:50;;;;;;;0.30;0.20;;;10.40;99.90;;;;;;5127840;27;21551;-70
2023/01/15 05:02:17;;;;;;;0.30;0.30;;;10.40;99.90;;;;;;5127978;27;20658;-69
2023/01/15 05:04:44;;;;;;;0.40;0.20;;;10.40;99.90;;;;;;5129023;27;20623;-70
2023/01/15 05:07:12;;;;;;;0.30;0.20;;;10.50;99.90;;;;;;5113436;27;21011;-70
2023/01/15 05:09:39;;;;;;;0.30;0.20;;;10.50;99.90;;;;;;5112827;27;20622;-70
2023/01/15 05:12:06;;;;;;;0.30;0.20;;;10.40;99.90;;;;;;5110446;27;20652;-71
2023/01/15 05:14:33;;;;;;;0.30;0.10;;;10.40;99.90;;;;;;5127974;27;20598;-71
2023/01/15 05:17:00;;;;;;;0.30;0.13;;;10.40;99.90;;;;;;5126946;27;20654;-71
2023/01/15 05:19:26;;;;;;;0.30;0.20;;;10.20;99.90;;;;;;5126846;27;20635;-71
2023/01/15 05:21:53;;;;;;;0.30;0.20;;;10.50;99.90;;;;;;5108124;28;20647;-70
2023/01/15 05:24:21;;;;;;;0.50;0.30;;;10.50;99.90;;;;;;5116758;27;20618;-71
2023/01/15 05:26:48;;;;;;;0.30;0.20;;;10.50;99.90;;;;;;5123984;27;20647;-70
2023/01/15 05:29:15;;;;;;;0.30;0.20;;;10.50;99.90;;;;;;5107686;27;20627;-70
2023/01/15 05:31:43;;;;;;;0.30;0.20;;;10.50;99.90;;;;;;5108264;27;20675;-70
2023/01/15 05:34:11;;;;;;;0.30;0.20;;;10.60;99.90;;;;;;5119880;27;20673;-70
2023/01/15 05:36:38;;;;;;;0.30;0.20;;;10.30;99.90;;;;;;5110637;27;21568;-70
2023/01/15 05:39:05;;;;;;;0.30;0.20;;;9.40;99.90;;;;;;5119301;27;20696;-70
2023/01/15 05:41:48;;;;;;;0.73;0.60;;;8.40;99.90;;;;;;5127420;27;20750;-71
2023/01/15 05:44:17;;;;;;;0.50;0.33;;;8.40;99.90;;;;;;5108879;27;20715;-70
2023/01/15 05:46:44;;;;;;;0.30;0.20;;;8.10;99.90;;;;;;5127763;27;20646;-70
2023/01/15 05:49:14;;;;;;;0.30;0.20;;;7.90;99.90;;;;;;5126957;27;20638;-69
2023/01/15 05:51:41;;;;;;;0.40;0.20;;;7.60;99.90;;;;;;5117136;27;20680;-72
2023/01/15 05:54:11;;;;;;;0.30;0.20;;;7.60;99.90;;;;;;5128403;27;20707;-71
2023/01/15 05:56:39;;;;;;;0.30;0.20;;;7.60;99.90;;;;;;5127670;27;20646;-69
2023/01/15 05:59:07;;;;;;;0.30;0.20;;;7.40;99.90;;;;;;5127245;27;20193;-70
2023/01/15 06:01:34;;;;;;;0.30;0.20;;;7.30;99.90;;;;;;5126339;27;20782;-71
2023/01/15 06:04:03;;;;;;;0.30;0.20;;;7.20;99.90;;;;;;5127597;27;20203;-69
2023/01/15 06:06:30;;;;;;;0.30;0.20;;;7.20;99.90;;;;;;5126949;27;20717;-70
2023/01/15 06:08:58;;;;;;;0.30;0.20;;;7.10;99.90;;;;;;5127220;27;20202;-70
2023/01/15 06:11:25;;;;;;;1.05;0.57;;;7.00;99.90;;;;;;5127999;27;20569;-70
2023/01/15 06:13:53;;;;;;;0.30;0.20;;;6.90;99.90;;;;;;5128433;28;20197;-70
2023/01/15 06:16:20;;;;;;;0.30;0.20;;;6.90;99.90;;;;;;5128486;28;20244;-69
2023/01/15 06:18:46;;;;;;;0.30;0.20;;;6.90;99.90;;;;;;5127363;28;20270;-70
2023/01/15 06:21:14;;;;;;;0.30;0.20;;;6.80;99.90;;;;;;5127860;28;20221;-69
2023/01/15 06:23:42;;;;;;;0.30;0.20;;;6.80;99.90;;;;;;5127286;28;20189;-70
2023/01/15 06:26:12;;;;;;;0.30;0.30;;;6.80;99.90;;;;;;5128352;28;20224;-70
2023/01/15 06:28:39;;;;;;;0.30;0.20;;;6.80;99.90;;;;;;5127837;28;20200;-71
2023/01/15 06:31:08;;;;;;;0.30;0.20;;;6.70;99.90;;;;;;5115095;28;20703;-71
2023/01/15 06:33:35;;;;;;;0.30;0.20;;;6.70;99.90;;;;;;5110525;28;20201;-70
2023/01/15 06:36:06;;;;;;;0.30;0.20;;;6.70;99.90;;;;;;5122682;28;20225;-70
2023/01/15 06:38:33;;;;;;;0.47;0.47;;;6.70;99.90;;;;;;5120434;28;20284;-71
2023/01/15 06:41:01;;;;;;;0.30;0.20;;;6.60;99.90;;;;;;5116003;28;20229;-70
2023/01/15 06:48:58;;;;;;;0.30;0.20;;;6.60;99.90;;;;;;5106596;28;20556;-71
2023/01/15 06:51:25;;;;;;;0.40;0.20;;;6.50;99.90;;;;;;5120437;28;20237;-70
2023/01/15 06:53:52;;;;;;;0.30;0.20;;;6.50;99.90;;;;;;5117989;28;20195;-69
2023/01/15 06:56:19;;;;;;;0.30;0.20;;;;;;;;;;5117584;28;20715;-70
2023/01/15 06:58:46;;;;;;;0.30;0.20;;;6.70;99.90;;;;;;5117263;28;20417;-70
2023/01/15 07:01:15;;;;;;;0.30;0.20;;;6.30;99.90;;;;;;5117371;28;20777;-69
2023/01/15 07:03:42;;;;;;;0.30;0.20;;;6.30;99.90;;;;;;5116936;28;20193;-70
2023/01/15 07:06:12;;;;;;;0.30;0.20;;;6.30;99.90;;;;;;5116438;28;20603;-69
2023/01/15 07:08:39;;;;;;;0.30;0.20;;;6.30;99.90;;;;;;5116868;28;20197;-70
2023/01/15 07:11:09;;;;;;;0.30;0.20;;;6.30;99.90;;;;;;5115740;28;20567;-70
2023/01/15 07:13:37;;;;;;;0.30;0.20;;;6.20;99.90;;;;;;5118759;27;20197;-70
2023/01/15 07:16:04;;;;;;;0.30;0.20;;;5.80;99.90;;;;;;5120383;27;20301;-70
2023/01/15 07:18:33;;;;;;;0.30;0.20;;;6.10;99.90;;;;;;5119907;27;20618;-71
2023/01/15 07:21:00;;;;;;;0.30;0.20;;;6.10;99.90;;;;;;5120322;27;20693;-70
2023/01/15 07:23:28;;;;;;;0.60;0.60;;;6.00;99.90;;;;;;5119920;27;20208;-70
2023/01/15 07:25:55;;;;;;;0.30;0.20;;;5.70;99.90;;;;;;5119428;27;20310;-70
2023/01/15 07:28:24;;;;;;;0.30;0.20;;;5.80;99.90;;;;;;5122934;27;20228;-70
2023/01/15 07:30:51;;;;;;;0.30;0.20;;;5.80;99.90;;;;;;5119447;27;20340;-69
2023/01/15 07:33:18;;;;;;;0.30;0.20;;;5.80;99.90;;;;;;5121012;27;20198;-70
2023/01/15 07:35:46;;;;;;;0.38;0.38;;;5.70;99.90;;;;;;5118927;27;20225;-69
2023/01/15 07:38:12;;;;;;;0.30;0.20;;;5.60;99.90;;;;;;5117923;27;20304;-69
2023/01/15 07:40:39;;;;;;;0.30;0.20;;;5.50;99.90;;;;;;5118924;27;20236;-71
2023/01/15 07:51:17;;;;;;;0.30;0.20;;;5.50;99.90;;;;;;5121659;27;20220;-70
2023/01/15 07:53:44;;;;;;;0.30;0.20;;;5.40;99.90;;;;;;5121033;27;20194;-70
2023/01/15 07:56:11;;;;;;;0.40;0.32;;;5.40;99.90;;;;;;5120948;27;20217;-70
2023/01/15 07:58:38;;;;;;;0.30;0.20;;;5.30;99.90;;;;;;5120184;27;20201;-70
2023/01/15 08:01:05;;;;;;;0.30;0.20;;;5.40;99.90;;;;;;5119896;27;20255;-70
2023/01/15 08:03:31;;;;;;;0.30;0.20;;;5.40;99.90;;;;;;5120472;27;20194;-69
2023/01/15 08:05:58;;;;;;;0.30;0.20;;;5.40;99.90;;;;;;5119563;27;20241;-70
2023/01/15 08:08:26;;;;;;;0.30;0.20;;;5.40;99.90;;;;;;5120196;27;20198;-70
2023/01/15 08:16:36;;;;;;;0.30;0.20;;;5.40;99.90;;;;;;5056290;28;20215;-70
2023/01/15 08:19:03;;;;;;;0.30;0.20;;;5.30;99.90;;;;;;5055275;28;20700;-69
2023/01/15 08:21:30;;;;;;;0.30;0.20;;;5.40;99.90;;;;;;5085253;27;20236;-70
2023/01/15 08:23:58;;;;;;;0.40;0.30;;;5.40;99.90;;;;;;5129920;27;20205;-71
2023/01/15 08:26:25;;;;;;;0.30;0.20;;;5.40;99.90;;;;;;5126976;27;20725;-69
2023/01/15 08:28:52;;;;;;;0.30;0.20;;;5.40;99.90;;;;;;5129297;27;20197;-69
2023/01/15 08:31:18;;;;;;;0.30;0.20;;;5.40;99.90;;;;;;5129817;27;20225;-69
2023/01/15 08:33:45;;;;;;;0.30;0.20;;;5.40;99.90;;;;;;5129467;27;20663;-69
2023/01/15 08:36:12;;;;;;;0.30;0.20;;;5.40;99.90;;;;;;5129662;27;20578;-70
2023/01/15 08:38:39;;;;;;;0.30;0.20;;;5.30;99.90;;;;;;5119055;27;20295;-69
2023/01/15 08:41:07;;;;;;;0.40;0.30;;;5.30;99.90;;;;;;5128078;27;20213;-69
2023/01/15 08:43:34;;;;;;;0.30;0.20;;;5.30;99.90;;;;;;5129683;27;20225;-71
2023/01/15 08:46:04;;;;;;;0.30;0.20;;;5.30;99.90;;;;;;5129883;27;20217;-70
2023/01/15 08:48:32;;;;;;;0.40;0.30;;;5.30;99.90;;;;;;5128795;27;20197;-69
2023/01/15 08:50:59;;;;;;;0.60;0.20;;;5.30;99.90;;;;;;5129282;27;20221;-70
2023/01/15 08:53:28;;;;;;;0.30;0.20;;;5.30;99.90;;;;;;5128921;27;20199;-69
2023/01/15 08:55:55;;;;;;;0.30;0.20;;;5.40;99.90;;;;;;5129471;27;20249;-70
2023/01/15 08:58:23;;;;;;;0.50;0.40;;;5.40;99.90;;;;;;5129015;27;20204;-71
2023/01/15 09:00:50;;;;;;;0.30;0.20;;;5.40;99.90;;;;;;5114143;27;20256;-70
2023/01/15 09:03:17;;;;;;;0.30;0.20;;;5.40;99.90;;;;;;5120506;27;20205;-70
2023/01/15 09:05:43;;;;;;;0.30;0.20;;;5.50;99.90;;;;;;5127112;27;20224;-69
2023/01/15 09:08:10;;;;;;;0.30;0.20;;;5.50;99.90;;;;;;5116098;27;20644;-70
2023/01/15 09:10:37;;;;;;;0.30;0.20;;;5.50;99.90;;;;;;5109400;27;20230;-70
2023/01/15 09:13:04;;;;;;;0.30;0.20;;;5.60;99.90;;;;;;5116310;27;20208;-69
2023/01/15 09:15:34;;;;;;;2.05;0.85;;;5.60;99.90;;;;;;5107739;27;20230;-71
2023/01/15 09:18:00;;;;;;;0.40;0.20;;;5.60;99.90;;;;;;5109079;27;20202;-70
2023/01/15 09:20:27;;;;;;;0.30;0.20;;;5.50;99.90;;;;;;5107401;28;20222;-70
2023/01/15 09:22:54;;;;;;;0.30;0.30;;;5.70;99.90;;;;;;5108367;28;20314;-70
2023/01/15 09:25:23;;;;;;;0.30;0.20;;;5.80;99.90;;;;;;5114001;27;20212;-70
2023/01/15 09:27:49;;;;;;;0.50;0.40;;;5.80;99.90;;;;;;5117852;27;20194;-70
2023/01/15 09:30:19;;;;;;;0.30;0.30;;;5.90;99.90;;;;;;5127249;27;20658;-69
2023/01/15 09:32:48;;;;;;;0.30;0.30;;;5.90;99.90;;;;;;5128703;27;20236;-70
2023/01/15 09:35:15;;;;;;;0.30;0.20;;;5.90;99.90;;;;;;5127742;27;20365;-70
2023/01/15 09:37:42;;;;;;;0.30;0.20;;;;;;;;;;5127811;27;20211;-70
2023/01/15 09:40:30;;;;;;;0.50;0.30;;;5.90;99.90;;;;;;5120364;27;20642;-71
2023/01/15 09:43:02;;;;;;;0.30;0.20;;;5.90;99.90;;;;;;5127960;27;20203;-69
2023/01/15 09:45:37;;;;;;;0.30;0.30;;;5.90;99.90;;;;;;5127905;27;20303;-70
2023/01/15 09:48:20;;;;;;;0.30;0.20;;;5.90;99.90;;;;;;5127823;27;20197;-71
2023/01/15 09:51:02;;;;;;;1.40;0.38;;;5.90;99.90;;;;;;5128034;27;20551;-70
2023/01/15 09:53:40;;;;;;;0.98;0.88;;;5.80;99.90;;;;;;5127797;27;20196;-70
2023/01/15 09:56:13;;;;;;;1.00;0.40;;;5.80;99.90;;;;;;5126703;27;21351;-70
2023/01/15 09:58:41;;;;;;;0.30;0.30;;;5.80;99.90;;;;;;5126890;27;20185;-70
2023/01/15 10:01:13;;;;;;;0.30;0.20;;;5.70;99.90;;;;;;5110063;28;20317;-71
2023/01/15 10:03:45;;;;;;;0.30;0.22;;;5.70;99.90;;;;;;5124259;27;20284;-70
2023/01/15 10:06:15;;;;;;;0.30;0.30;;;5.50;99.90;;;;;;5127392;27;20233;-71
2023/01/15 10:08:45;;;;;;;0.30;0.20;;;5.50;99.90;;;;;;5111967;27;20198;-70
2023/01/15 10:14:38;;;;;;;0.40;0.30;;;5.30;99.90;;;;;;5110445;28;20650;-69
2023/01/15 10:17:11;;;;;;;0.40;0.40;;;5.30;99.90;;;;;;5126309;28;20238;-70
2023/01/15 10:19:39;;;;;;;0.30;0.20;;;5.30;99.90;;;;;;5114650;28;20194;-70
2023/01/15 10:22:12;;;;;;;0.30;0.20;;;5.10;99.90;;;;;;5108639;28;20247;-70
2023/01/15 10:24:45;;;;;;;0.30;0.20;;;5.50;99.90;;;;;;5122727;28;20224;-70
2023/01/15 10:27:18;;;;;;;0.30;0.30;;;5.30;99.90;;;;;;5122065;28;20221;-70
2023/01/15 10:29:49;;;;;;;0.50;0.50;;;5.50;99.90;;;;;;5106399;28;20193;-70
2023/01/15 10:32:23;;;;;;;0.30;0.20;;;5.30;99.90;;;;;;5126654;28;20236;-70
2023/01/15 10:35:08;;;;;;;0.30;0.20;;;5.40;99.90;;;;;;5127071;28;20201;-70
2023/01/15 10:37:40;;;;;;;0.30;0.20;;;5.40;99.90;;;;;;5121257;28;20205;-70
2023/01/15 10:40:26;;;;;;;0.30;0.30;;;5.50;99.90;;;;;;5118180;28;20197;-70
2023/01/15 10:43:00;;;;;;;0.30;0.30;;;5.50;99.90;;;;;;5121782;28;20186;-69
2023/01/15 10:45:31;;;;;;;0.50;0.40;;;5.40;99.90;;;;;;5121062;28;20225;-71
2023/01/15 10:48:01;;;;;;;0.30;0.30;;;5.50;99.90;;;;;;5127144;27;20201;-71
2023/01/15 10:50:29;;;;;;;0.40;0.30;;;5.40;99.90;;;;;;5113032;27;20226;-70
2023/01/15 10:53:06;;;;;;;0.30;0.20;;;5.40;99.90;;;;;;5131296;27;20718;-70
2023/01/15 10:55:37;;;;;;;3.60;0.82;;;5.30;99.90;;;;;;5131565;27;20274;-70
2023/01/15 10:58:11;;;;;;;0.30;0.20;;;5.40;99.90;;;;;;5131201;27;20684;-70
2023/01/15 11:00:38;;;;;;;1.40;1.25;;;5.20;99.90;;;;;;5131070;27;20213;-70
2023/01/15 11:03:13;;;;;;;0.30;0.20;;;5.20;99.90;;;;;;5132098;27;20193;-70
2023/01/15 11:05:44;;;;;;;0.30;0.20;;;5.00;99.90;;;;;;5131829;27;20323;-70
2023/01/15 11:08:19;;;;;;;0.30;0.20;;;5.00;99.90;;;;;;5131625;27;20197;-69
2023/01/15 11:10:46;;;;;;;0.40;0.30;;;4.80;99.90;;;;;;5131520;27;20578;-70
2023/01/15 11:21:42;;;;;;;0.30;0.20;;;4.80;99.90;;;;;;5110570;28;20282;-70
2023/01/15 11:24:14;;;;;;;0.30;0.20;;;4.10;99.90;;;;;;5111028;27;20573;-69
2023/01/15 11:26:42;;;;;;;0.30;0.20;;;;;;;;;;5113535;27;20278;-68
2023/01/15 11:29:15;;;;;;;0.30;0.20;;;4.10;99.90;;;;;;5130997;27;20193;-70
2023/01/15 11:31:42;;;;;;;0.60;0.32;;;;;;;;;;5128647;27;20259;-70
2023/01/15 11:34:19;;;;;;;0.30;0.20;;;4.00;99.90;;;;;;5111157;27;20693;-69
2023/01/15 11:36:48;;;;;;;0.30;0.30;;;3.90;99.90;;;;;;5114342;27;20212;-69
2023/01/15 11:39:26;;;;;;;1.70;1.60;;;3.70;99.90;;;;;;5124037;27;20281;-69
2023/01/15 11:53:08;;;;;;;0.30;0.30;;;3.60;99.90;;;;;;5113176;27;20690;-69
2023/01/15 11:55:35;;;;;;;0.38;0.35;;;3.50;99.90;;;;;;5110284;27;20221;-70
2023/01/15 11:58:02;;;;;;;0.30;0.28;;;3.50;99.90;;;;;;5111047;27;20202;-69
2023/01/15 12:00:33;;;;;;;0.80;0.80;;;3.50;99.90;;;;;;5129184;27;20223;-70
2023/01/15 12:03:05;;;;;;;0.55;0.55;;;3.50;99.90;;;;;;5129931;27;20242;-69
2023/01/15 12:05:35;;;;;;;1.15;1.05;;;3.50;99.90;;;;;;5130447;27;20216;-69
2023/01/15 12:08:13;;;;;;;0.40;0.40;;;3.50;99.90;;;;;;5130068;27;20208;-69
2023/01/15 12:11:10;;;;;;;0.40;0.40;;;3.60;99.90;;;;;;5130149;27;20225;-69
2023/01/15 12:13:46;;;;;;;0.60;0.60;;;3.70;99.90;;;;;;5129730;27;20224;-70
2023/01/15 12:16:19;;;;;;;0.70;0.70;;;3.70;99.90;;;;;;5112307;27;20222;-69
2023/01/15 12:18:54;;;;;;;1.45;0.85;;;3.70;99.90;;;;;;5130028;27;20217;-69
2023/01/15 12:21:57;;;;;;;1.10;0.80;;;3.60;99.90;;;;;;5130371;27;20232;-68
2023/01/15 12:24:51;;;;;;;0.30;0.20;;;3.60;99.90;;;;;;5124398;27;20212;-69
2023/01/15 12:27:48;;;;;;;0.50;0.30;;;3.60;99.90;;;;;;5127734;27;20229;-70
2023/01/15 12:30:24;;;;;;;0.30;0.30;;;3.70;99.90;;;;;;5112933;27;20825;-69
2023/01/15 12:32:58;;;;;;;2.35;1.15;;;3.60;99.90;;;;;;5124231;27;20232;-69
2023/01/15 12:35:29;;;;;;;1.05;0.95;;;3.70;99.90;;;;;;5129597;27;20221;-70
2023/01/15 12:37:59;;;;;;;0.40;0.40;;;3.70;99.90;;;;;;5124153;27;20289;-69
2023/01/15 12:40:30;;;;;;;0.30;0.20;;;3.70;99.90;;;;;;5123138;27;20217;-69
2023/01/15 12:45:46;;;;;;;0.50;0.50;;;3.70;99.90;;;;;;5129240;27;20225;-69
2023/01/15 12:48:19;;;;;;;0.30;0.20;;;3.70;99.90;;;;;;5129605;27;20200;-70
2023/01/15 12:50:49;;;;;;;0.30;0.20;;;3.80;99.90;;;;;;5129335;27;20221;-70
2023/01/15 12:53:31;;;;;;;0.45;0.45;;;3.80;99.90;;;;;;5129643;27;20590;-69
2023/01/15 12:56:01;;;;;;;0.38;0.38;;;3.70;99.90;;;;;;5129450;27;20675;-68
2023/01/15 12:58:40;;;;;;;0.30;0.30;;;3.90;99.90;;;;;;5129387;27;20621;-69
2023/01/15 13:01:16;;;;;;;0.30;0.20;;;3.90;99.90;;;;;;5129474;27;20223;-69
2023/01/15 13:03:53;;;;;;;0.40;0.40;;;3.90;99.90;;;;;;5129007;27;21084;-70
2023/01/15 13:06:24;;;;;;;0.57;0.50;;;3.90;99.90;;;;;;5128883;27;21640;-70
2023/01/15 13:08:58;;;;;;;0.80;0.50;;;4.00;99.90;;;;;;5128211;27;20787;-70
2023/01/15 13:11:24;;;;;;;0.30;0.20;;;4.00;99.90;;;;;;5128134;27;20227;-70
2023/01/15 13:13:59;;;;;;;0.30;0.20;;;5.00;99.90;;;;;;5113526;27;20573;-70
2023/01/15 13:16:37;;;;;;;0.60;0.30;;;4.20;99.90;;;;;;5128901;27;20972;-71
2023/01/15 13:19:20;;;;;;;0.38;0.38;;;4.30;99.90;;;;;;5129226;27;20204;-70
2023/01/15 13:21:50;;;;;;;0.68;0.68;;;4.40;99.90;;;;;;5128813;27;20661;-70
2023/01/15 13:24:36;;;;;;;0.30;0.30;;;4.40;99.90;;;;;;5128385;27;20201;-70
2023/01/15 13:27:23;;;;;;;0.30;0.28;;;4.50;99.90;;;;;;5128532;27;20217;-69
2023/01/15 13:30:08;;;;;;;0.50;0.30;;;4.40;99.90;;;;;;5128546;27;20193;-70
2023/01/15 13:32:42;;;;;;;0.30;0.20;;;4.40;99.90;;;;;;5108199;28;20362;-70
2023/01/15 13:35:14;;;;;;;0.30;0.20;;;4.40;99.90;;;;;;5116594;27;20204;-70
2023/01/15 13:37:44;;;;;;;0.30;0.25;;;4.50;99.90;;;;;;5116727;27;20204;-69
2023/01/15 13:40:21;;;;;;;1.25;1.10;;;4.50;99.90;;;;;;5124120;27;20200;-70
2023/01/15 13:42:48;;;;;;;0.30;0.20;;;4.70;99.90;;;;;;5113793;27;20280;-70
2023/01/15 13:45:35;;;;;;;0.30;0.20;;;4.40;99.90;;;;;;5108685;27;20689;-69
2023/01/15 13:48:06;;;;;;;0.50;0.40;;;4.40;99.90;;;;;;5109496;28;20202;-70
2023/01/15 13:50:36;;;;;;;0.77;0.73;;;4.40;99.90;;;;;;5125152;27;20220;-69
2023/01/15 13:53:07;;;;;;;0.40;0.30;;;4.30;99.90;;;;;;5118081;27;20222;-69
2023/01/15 13:55:37;;;;;;;1.00;1.00;;;4.20;99.90;;;;;;5107404;28;20229;-70
2023/01/15 13:58:17;;;;;;;0.40;0.40;;;4.10;99.90;;;;;;5118635;27;20201;-71
2023/01/15 14:00:46;;;;;;;0.40;0.40;;;4.20;99.90;;;;;;5128543;27;20229;-70
2023/01/15 14:03:26;;;;;;;0.30;0.20;;;4.20;99.90;;;;;;5128694;27;20379;-69
2023/01/15 14:05:57;;;;;;;0.30;0.20;;;4.20;99.90;;;;;;5112021;27;20229;-70
2023/01/15 14:08:28;;;;;;;0.40;0.30;;;4.10;99.90;;;;;;5108982;27;20289;-70